Time;durP1;ratioP1;P1;durP2;ratioP2;P2;SDS_P1;SDS_P2;PMS_P1;PMS_P2;Temp;Humidity;BMP_temperature;BMP_pressure;BME280_temperature;BME280_humidity;BME280_pressure;Samples;Min_cycle;Max_cycle;Signal;HPM_P1;HPM_P2
2023/10/09 00:01:44;;;;;;;4.28;2.03;;;;;;;;;;4956130;28;20065;-77
2023/10/09 00:04:10;;;;;;;5.53;1.77;;;;;;;;;;4955421;28;20096;-77
2023/10/09 00:06:37;;;;;;;4.05;2.38;;;;;;;;;;4970963;28;20072;-77
2023/10/09 00:09:30;;;;;;;3.85;1.92;;;;;;;;;;4956398;28;20081;-77
2023/10/09 00:12:00;;;;;;;4.82;1.65;;;;;;;;;;4955998;28;20074;-77
2023/10/09 00:14:32;;;;;;;8.88;2.33;;;;;;;;;;4940293;28;20035;-77
2023/10/09 00:19:38;;;;;;;4.18;2.00;;;;;;;;;;4969517;28;20046;-77
2023/10/09 00:22:04;;;;;;;3.97;2.10;;;;;;;;;;4945724;28;20054;-77
2023/10/09 00:24:33;;;;;;;6.43;2.05;;;;;;;;;;4959577;28;20514;-77
2023/10/09 00:27:12;;;;;;;5.68;2.25;;;;;;;;;;4969728;28;20422;-77
2023/10/09 00:29:44;;;;;;;8.13;2.45;;;;;;;;;;4939216;28;20039;-77
2023/10/09 00:32:22;;;;;;;4.93;2.53;;;;;;;;;;4944984;28;20039;-76
2023/10/09 00:34:50;;;;;;;5.70;2.33;;;;;;;;;;4954713;28;20058;-77
2023/10/09 00:37:33;;;;;;;;;;;;;;;;;;4948058;28;20035;-77
2023/10/09 00:39:59;;;;;;;4.03;2.00;;;;;;;;;;4969592;28;19976;-77
2023/10/09 00:42:34;;;;;;;5.22;2.35;;;;;;;;;;4955405;28;20039;-77
2023/10/09 00:45:03;;;;;;;4.90;2.20;;;;;;;;;;4971222;28;20427;-77
2023/10/09 00:47:34;;;;;;;5.22;2.38;;;;;;;;;;4946215;28;20042;-77
2023/10/09 00:52:51;;;;;;;5.75;2.60;;;;;;;;;;4968424;28;20094;-76
2023/10/09 00:55:21;;;;;;;5.03;2.40;;;;;;;;;;4955012;28;20039;-77
2023/10/09 00:57:59;;;;;;;5.13;2.33;;;;;;;;;;4954392;28;20738;-77
2023/10/09 01:03:19;;;;;;;5.90;2.42;;;;;;;;;;4960390;28;20894;-77
2023/10/09 01:10:59;;;;;;;4.68;2.30;;;;;;;;;;4958427;28;20137;-76
2023/10/09 01:13:38;;;;;;;8.00;2.83;;;;;;;;;;4974116;28;20777;-77
2023/10/09 01:16:05;;;;;;;4.65;2.20;;;;;;;;;;4962794;28;20086;-77
2023/10/09 01:18:35;;;;;;;5.43;2.40;;;;;;;;;;4949847;28;20055;-77
2023/10/09 01:21:02;;;;;;;7.20;2.50;;;;;;;;;;4957977;28;20437;-77
2023/10/09 01:23:29;;;;;;;5.28;2.70;;;;;;;;;;4941646;28;20031;-77
2023/10/09 01:25:55;;;;;;;4.80;2.43;;;;;;;;;;4956937;28;20034;-77
2023/10/09 01:28:20;;;;;;;5.32;2.20;;;;;;;;;;4960201;28;20285;-77
2023/10/09 01:30:47;;;;;;;5.05;2.40;;;;;;;;;;4963321;28;20070;-77
2023/10/09 01:33:27;;;;;;;4.60;2.42;;;;;;;;;;4958021;28;20038;-77
2023/10/09 01:35:58;;;;;;;6.05;2.40;;;;;;;;;;4971548;28;20038;-77
2023/10/09 01:38:40;;;;;;;4.63;2.30;;;;;;;;;;4958549;28;20086;-77
2023/10/09 01:41:19;;;;;;;4.60;2.65;;;;;;;;;;4972443;28;20034;-77
2023/10/09 01:43:45;;;;;;;6.43;2.80;;;;;;;;;;4949303;28;20458;-77
2023/10/09 01:46:11;;;;;;;4.55;2.38;;;;;;;;;;4939482;28;20085;-77
2023/10/09 01:48:40;;;;;;;5.35;2.60;;;;;;;;;;4941455;28;20070;-77
2023/10/09 01:51:06;;;;;;;6.80;2.58;;;;;;;;;;4963285;28;20118;-77
2023/10/09 01:53:33;;;;;;;6.30;3.08;;;;;;;;;;4965099;28;20582;-77
2023/10/09 01:56:17;;;;;;;4.87;2.50;;;;;;;;;;4958896;28;20027;-77
2023/10/09 01:58:47;;;;;;;5.40;2.70;;;;;;;;;;4958823;28;20043;-77
2023/10/09 02:01:14;;;;;;;7.75;2.80;;;;;;;;;;4956834;28;20065;-77
2023/10/09 02:03:42;;;;;;;7.07;2.72;;;;;;;;;;4958338;28;20430;-76
2023/10/09 02:06:27;;;;;;;5.32;2.60;;;;;;;;;;4956463;28;20039;-77
2023/10/09 02:08:54;;;;;;;5.72;2.75;;;;;;;;;;4944243;28;20546;-77
2023/10/09 02:14:15;;;;;;;6.63;3.15;;;;;;;;;;4963138;28;20058;-76
2023/10/09 02:16:41;;;;;;;7.35;2.92;;;;;;;;;;4955521;28;20806;-77
2023/10/09 02:19:28;;;;;;;6.18;3.15;;;;;;;;;;4959243;28;20074;-77
2023/10/09 02:21:56;;;;;;;7.15;3.05;;;;;;;;;;4979139;28;20046;-77
2023/10/09 02:27:06;;;;;;;7.13;2.70;;;;;;;;;;4957679;28;20058;-77
2023/10/09 02:29:35;;;;;;;6.95;2.80;;;;;;;;;;4955139;28;20039;-77
2023/10/09 02:32:13;;;;;;;7.97;3.13;;;;;;;;;;4947498;28;20039;-77
2023/10/09 02:34:38;;;;;;;5.40;2.90;;;;;;;;;;4957895;28;20042;-77
2023/10/09 02:37:12;;;;;;;6.63;3.00;;;;;;;;;;4972566;28;20105;-77
2023/10/09 02:40:02;;;;;;;8.35;3.00;;;;;;;;;;4970216;28;20054;-77
2023/10/09 02:42:28;;;;;;;6.38;3.05;;;;;;;;;;4936222;29;20540;-77
2023/10/09 02:44:55;;;;;;;7.70;3.17;;;;;;;;;;4938558;28;20035;-77
2023/10/09 02:47:24;;;;;;;6.95;3.58;;;;;;;;;;4936386;28;20439;-77
2023/10/09 02:49:50;;;;;;;8.25;3.53;;;;;;;;;;4939668;28;20067;-77
2023/10/09 02:52:19;;;;;;;6.22;3.60;;;;;;;;;;4927407;29;20039;-77
2023/10/09 02:54:47;;;;;;;5.50;3.55;;;;;;;;;;4937759;29;20106;-77
2023/10/09 02:57:23;;;;;;;9.15;3.45;;;;;;;;;;4937750;28;20049;-77
2023/10/09 02:59:51;;;;;;;5.90;3.38;;;;;;;;;;4941795;28;20055;-77
2023/10/09 03:02:18;;;;;;;10.18;3.72;;;;;;;;;;4926208;29;20179;-77
2023/10/09 03:04:44;;;;;;;7.63;3.60;;;;;;;;;;4904861;29;20069;-77
2023/10/09 03:07:10;;;;;;;8.15;3.72;;;;;;;;;;4917710;29;20126;-77
2023/10/09 03:09:36;;;;;;;8.13;3.97;;;;;;;;;;4937418;28;20587;-77
2023/10/09 03:12:02;;;;;;;9.23;4.18;;;;;;;;;;4935817;28;20043;-77
2023/10/09 03:14:30;;;;;;;9.93;4.13;;;;;;;;;;4936048;29;20465;-77
2023/10/09 03:16:59;;;;;;;;;;;;;;;;;;4941885;28;20035;-77
2023/10/09 03:19:38;;;;;;;9.35;4.57;;;;;;;;;;4943336;28;19973;-76
2023/10/09 03:22:05;;;;;;;10.27;4.93;;;;;;;;;;4955472;28;20031;-77
2023/10/09 03:24:33;;;;;;;7.70;4.32;;;;;;;;;;4939258;28;20038;-76
2023/10/09 03:26:59;;;;;;;9.00;4.90;;;;;;;;;;4962532;28;20815;-76
2023/10/09 03:29:24;;;;;;;9.27;4.65;;;;;;;;;;4939952;28;20041;-76
2023/10/09 03:31:55;;;;;;;8.82;4.30;;;;;;;;;;4945850;28;20031;-77
2023/10/09 03:34:20;;;;;;;9.27;5.10;;;;;;;;;;4955732;28;20153;-77
2023/10/09 03:36:47;;;;;;;8.82;4.18;;;;;;;;;;4938650;28;20097;-77
2023/10/09 03:41:58;;;;;;;10.52;4.80;;;;;;;;;;4950826;28;20422;-77
2023/10/09 03:44:27;;;;;;;11.98;5.00;;;;;;;;;;4942269;28;20131;-77
2023/10/09 03:46:53;;;;;;;12.05;4.90;;;;;;;;;;4954438;28;20039;-78
2023/10/09 03:49:25;;;;;;;9.45;4.47;;;;;;;;;;4976843;28;20061;-77
2023/10/09 03:51:51;;;;;;;11.55;5.00;;;;;;;;;;4946795;28;20085;-77
2023/10/09 03:54:20;;;;;;;9.55;5.43;;;;;;;;;;4957180;28;20036;-77
2023/10/09 03:56:49;;;;;;;10.50;5.18;;;;;;;;;;4970334;28;20035;-76
2023/10/09 03:59:21;;;;;;;9.15;5.25;;;;;;;;;;4956236;28;20039;-77
2023/10/09 04:01:52;;;;;;;12.60;5.85;;;;;;;;;;4955939;28;20043;-78
2023/10/09 04:04:22;;;;;;;10.95;5.70;;;;;;;;;;4976738;28;20043;-78
2023/10/09 04:06:49;;;;;;;12.00;5.57;;;;;;;;;;4939277;28;20443;-78
2023/10/09 04:11:47;;;;;;;8.07;4.70;;;;;;;;;;4953561;28;20550;-77
2023/10/09 04:15:15;;;;;;;10.75;5.28;;;;;;;;;;4956026;28;20381;-77
2023/10/09 04:19:48;;;;;;;9.05;4.30;;;;;;;;;;4960391;28;20096;-78
2023/10/09 04:22:31;;;;;;;8.23;4.63;;;;;;;;;;4953328;28;20050;-77
2023/10/09 04:24:57;;;;;;;7.40;4.50;;;;;;;;;;4939235;28;20051;-77
2023/10/09 04:27:26;;;;;;;9.52;4.53;;;;;;;;;;4941140;28;20063;-78
2023/10/09 04:29:54;;;;;;;9.13;5.28;;;;;;;;;;4954506;28;20547;-77
2023/10/09 04:32:24;;;;;;;7.18;4.05;;;;;;;;;;4943411;28;20049;-78
2023/10/09 04:34:56;;;;;;;9.52;4.70;;;;;;;;;;4958353;28;20085;-78
2023/10/09 04:38:04;;;;;;;9.50;4.60;;;;;;;;;;4958613;28;20171;-77
2023/10/09 04:40:41;;;;;;;9.57;5.03;;;;;;;;;;4957931;28;20050;-78
2023/10/09 04:43:06;;;;;;;9.73;4.70;;;;;;;;;;4959590;28;20031;-78
2023/10/09 04:48:10;;;;;;;7.95;4.70;;;;;;;;;;4973359;28;20086;-78
2023/10/09 04:53:50;;;;;;;9.30;4.40;;;;;;;;;;4976300;28;20141;-78
2023/10/09 04:55:57;;;;;;;8.73;4.40;;;;;;;;;;4948919;28;20031;-78
2023/10/09 04:58:27;;;;;;;9.77;4.93;;;;;;;;;;4980219;28;20047;-78
2023/10/09 05:03:27;;;;;;;8.50;4.70;;;;;;;;;;4956024;28;20059;-77
2023/10/09 05:05:58;;;;;;;7.03;4.45;;;;;;;;;;4964635;28;25101;-78
2023/10/09 05:08:28;;;;;;;8.93;4.78;;;;;;;;;;4960121;28;20054;-78
2023/10/09 05:16:13;;;;;;;12.02;4.70;;;;;;;;;;4962754;28;20043;-77
2023/10/09 05:18:59;;;;;;;9.90;4.68;;;;;;;;;;4961472;28;20428;-78
2023/10/09 05:31:57;;;;;;;39.95;22.17;;;;;;;;;;4958323;28;20368;-78
2023/10/09 05:34:34;;;;;;;30.48;14.40;;;;;;;;;;4958085;28;20141;-77
2023/10/09 05:37:25;;;;;;;11.85;6.47;;;;;;;;;;4964687;28;20027;-78
2023/10/09 05:42:43;;;;;;;11.82;5.70;;;;;;;;;;4958990;28;20031;-77
2023/10/09 05:47:54;;;;;;;8.70;5.10;;;;;;;;;;4973745;28;20522;-78
2023/10/09 06:08:24;;;;;;;17.25;8.50;;;;;;;;;;4957744;28;20035;-78
2023/10/09 06:11:05;;;;;;;13.98;8.32;;;;;;;;;;4955055;28;20038;-78
2023/10/09 06:13:46;;;;;;;10.63;6.60;;;;;;;;;;4961210;28;20042;-78
2023/10/09 06:19:12;;;;;;;10.70;5.53;;;;;;;;;;4971365;28;20169;-78
2023/10/09 06:24:18;;;;;;;11.15;5.10;;;;;;;;;;4977133;28;20042;-76
2023/10/09 06:29:50;;;;;;;8.23;4.60;;;;;;;;;;4948403;28;20039;-77
2023/10/09 06:34:57;;;;;;;8.55;5.32;;;;;;;;;;4973035;28;20042;-78
2023/10/09 06:42:51;;;;;;;8.40;5.00;;;;;;;;;;4971608;28;20041;-79
2023/10/09 06:45:18;;;;;;;7.25;4.82;;;;;;;;;;4974817;28;20650;-79
2023/10/09 06:48:07;;;;;;;7.85;4.90;;;;;;;;;;4947612;28;20039;-78
2023/10/09 06:53:25;;;;;;;46.70;23.85;;;;;;;;;;4962187;28;20094;-79
2023/10/09 06:56:05;;;;;;;10.88;7.28;;;;;;;;;;4956110;28;20039;-79
2023/10/09 06:58:41;;;;;;;9.85;5.57;;;;;;;;;;4957606;28;20118;-79
2023/10/09 07:03:53;;;;;;;8.68;5.20;;;;;;;;;;4956816;28;20041;-80
2023/10/09 07:12:20;;;;;;;9.35;5.25;;;;;;;;;;4954953;28;20518;-80
2023/10/09 07:18:18;;;;;;;11.32;4.95;;;;;;;;;;4956586;28;20046;-79
2023/10/09 07:23:13;;;;;;;7.38;4.45;;;;;;;;;;4931740;28;20581;-79
2023/10/09 07:25:54;;;;;;;8.07;4.38;;;;;;;;;;4960445;28;20035;-79
2023/10/09 07:28:48;;;;;;;6.40;4.00;;;;;;;;;;4956091;28;20035;-79
2023/10/09 07:31:23;;;;;;;10.73;4.70;;;;;;;;;;4954869;28;20105;-79
2023/10/09 07:33:59;;;;;;;9.65;4.55;;;;;;;;;;4960258;28;20421;-79
2023/10/09 07:36:37;;;;;;;7.63;4.38;;;;;;;;;;4956124;28;20031;-78
2023/10/09 07:39:13;;;;;;;7.88;4.07;;;;;;;;;;4957240;28;20420;-79
2023/10/09 07:41:44;;;;;;;8.25;4.32;;;;;;;;;;4945579;28;20093;-79
2023/10/09 07:44:19;;;;;;;8.55;4.32;;;;;;;;;;4977375;28;20047;-78
2023/10/09 07:49:37;;;;;;;9.48;4.38;;;;;;;;;;4942809;28;20039;-79
2023/10/09 07:52:02;;;;;;;9.85;4.35;;;;;;;;;;4955845;28;20035;-79
2023/10/09 07:54:36;;;;;;;8.15;4.72;;;;;;;;;;4956659;28;20061;-78
2023/10/09 07:57:15;;;;;;;7.75;4.45;;;;;;;;;;4954932;28;20036;-78
2023/10/09 07:59:54;;;;;;;9.77;4.63;;;;;;;;;;4955496;28;20410;-79
2023/10/09 08:02:31;;;;;;;12.70;6.90;;;;;;;;;;4970450;28;20035;-79
2023/10/09 08:05:22;;;;;;;8.35;4.05;;;;;;;;;;4954638;28;20070;-79
2023/10/09 08:07:57;;;;;;;6.40;3.70;;;;;;;;;;4954752;28;20054;-78
2023/10/09 08:17:53;;;;;;;7.70;3.80;;;;;;;;;;4959814;28;20045;-77
2023/10/09 08:20:24;;;;;;;5.78;3.80;;;;;;;;;;4960798;28;20057;-79
2023/10/09 08:22:52;;;;;;;9.70;5.43;;;;;;;;;;4950354;28;20529;-79
2023/10/09 08:25:27;;;;;;;9.13;5.05;;;;;;;;;;4961137;28;20847;-78
2023/10/09 08:30:49;;;;;;;6.53;3.40;;;;;;;;;;4976521;28;20038;-77
2023/10/09 08:33:40;;;;;;;6.45;3.28;;;;;;;;;;4958924;28;20045;-78
2023/10/09 08:36:07;;;;;;;6.32;3.53;;;;;;;;;;4972673;28;20035;-78
2023/10/09 08:38:33;;;;;;;7.32;3.70;;;;;;;;;;4962741;28;20046;-78
2023/10/09 08:41:18;;;;;;;6.80;3.38;;;;;;;;;;4964444;28;20523;-79
2023/10/09 08:43:51;;;;;;;7.32;3.78;;;;;;;;;;4926531;28;20054;-78
2023/10/09 08:46:20;;;;;;;6.22;3.50;;;;;;;;;;4948923;28;20027;-78
2023/10/09 08:48:46;;;;;;;6.75;3.80;;;;;;;;;;4943814;28;20039;-79
2023/10/09 08:51:11;;;;;;;8.82;3.80;;;;;;;;;;4947998;28;20037;-78
2023/10/09 08:53:42;;;;;;;7.60;4.47;;;;;;;;;;4956436;28;20067;-79
2023/10/09 08:56:23;;;;;;;13.30;7.47;;;;;;;;;;4960393;28;21138;-77
2023/10/09 08:58:52;;;;;;;6.40;3.30;;;;;;;;;;4940869;28;20053;-79
2023/10/09 09:01:21;;;;;;;7.43;4.10;;;;;;;;;;4935035;28;20031;-79
2023/10/09 09:03:48;;;;;;;6.70;3.63;;;;;;;;;;4943853;28;20035;-78
2023/10/09 09:06:14;;;;;;;5.95;3.55;;;;;;;;;;4964379;28;20118;-78
2023/10/09 09:08:44;;;;;;;7.43;3.88;;;;;;;;;;4964039;28;20031;-79
2023/10/09 09:11:18;;;;;;;7.57;3.78;;;;;;;;;;4948368;28;20043;-78
2023/10/09 09:13:58;;;;;;;6.70;4.07;;;;;;;;;;4965319;28;20066;-78
2023/10/09 09:16:31;;;;;;;7.97;3.58;;;;;;;;;;4958817;28;20539;-79
2023/10/09 09:21:40;;;;;;;8.07;3.80;;;;;;;;;;4959280;28;20047;-79
2023/10/09 09:26:45;;;;;;;6.43;3.47;;;;;;;;;;4960289;28;20039;-79
2023/10/09 09:29:18;;;;;;;8.02;4.55;;;;;;;;;;4959546;28;20041;-78
2023/10/09 09:31:54;;;;;;;6.88;3.75;;;;;;;;;;4949208;28;20043;-79
2023/10/09 09:34:25;;;;;;;6.50;3.75;;;;;;;;;;4963663;28;20042;-78
2023/10/09 09:36:56;;;;;;;8.48;3.88;;;;;;;;;;4947587;28;20462;-79
2023/10/09 09:39:29;;;;;;;8.15;3.75;;;;;;;;;;4957935;28;20122;-80
2023/10/09 09:42:07;;;;;;;8.45;4.22;;;;;;;;;;4943322;28;20067;-78
2023/10/09 09:44:43;;;;;;;;;;;;;;;;;;4944259;28;20097;-78
2023/10/09 09:47:12;;;;;;;8.70;4.00;;;;;;;;;;4957304;28;19924;-78
2023/10/09 09:49:41;;;;;;;5.78;3.80;;;;;;;;;;4958497;28;20495;-77
2023/10/09 09:52:10;;;;;;;8.48;4.07;;;;;;;;;;4979147;28;20138;-77
2023/10/09 09:54:37;;;;;;;8.60;4.47;;;;;;;;;;4963322;28;20439;-78
2023/10/09 09:57:08;;;;;;;10.50;5.93;;;;;;;;;;4956710;28;20059;-78
2023/10/09 09:59:40;;;;;;;11.15;5.70;;;;;;;;;;4955376;28;20054;-79
2023/10/09 10:02:08;;;;;;;7.88;5.00;;;;;;;;;;4940516;28;20045;-78
2023/10/09 10:04:35;;;;;;;;;;;;;;;;;;4964387;28;20038;-79
2023/10/09 10:07:08;;;;;;;7.00;4.22;;;;;;;;;;4946248;28;19914;-78
2023/10/09 10:10:08;;;;;;;7.47;4.75;;;;;;;;;;4957679;28;20069;-78
2023/10/09 10:12:56;;;;;;;7.72;4.40;;;;;;;;;;4924418;29;20854;-78
2023/10/09 10:15:24;;;;;;;7.07;4.95;;;;;;;;;;4925092;29;20040;-78
2023/10/09 10:18:02;;;;;;;8.20;5.32;;;;;;;;;;4924099;29;20976;-79
2023/10/09 10:20:31;;;;;;;8.65;5.22;;;;;;;;;;4923913;29;20047;-78
2023/10/09 10:23:20;;;;;;;8.32;5.75;;;;;;;;;;4886154;29;20099;-79
2023/10/09 10:25:49;;;;;;;8.80;5.72;;;;;;;;;;4892877;29;20610;-78
2023/10/09 10:28:38;;;;;;;8.38;6.05;;;;;;;;;;4907389;29;20525;-78
2023/10/09 10:31:09;;;;;;;10.07;6.47;;;;;;;;;;4909590;29;20106;-78
2023/10/09 10:33:55;;;;;;;10.80;7.20;;;;;;;;;;4909582;29;20047;-79
2023/10/09 10:36:24;;;;;;;10.63;6.43;;;;;;;;;;4924905;29;20044;-78
2023/10/09 10:41:54;;;;;;;9.27;6.40;;;;;;;;;;4894540;29;20067;-77
2023/10/09 10:44:36;;;;;;;11.45;6.80;;;;;;;;;;4922909;29;20638;-79
2023/10/09 10:47:03;;;;;;;8.85;5.80;;;;;;;;;;4903627;29;20032;-79
2023/10/09 10:49:38;;;;;;;8.73;6.18;;;;;;;;;;4913480;28;20506;-79
2023/10/09 10:52:18;;;;;;;11.00;6.22;;;;;;;;;;4969555;28;20038;-79
2023/10/09 10:57:28;;;;;;;9.93;6.10;;;;;;;;;;4955787;28;20039;-79
2023/10/09 11:00:13;;;;;;;8.10;5.85;;;;;;;;;;4943902;28;20420;-78
2023/10/09 11:02:47;;;;;;;8.80;6.30;;;;;;;;;;4949205;28;20043;-78
2023/10/09 11:05:25;;;;;;;11.88;6.35;;;;;;;;;;4950072;28;20121;-78
2023/10/09 11:07:57;;;;;;;;;;;;;;;;;;4955702;28;20042;-79
2023/10/09 11:10:31;;;;;;;8.82;5.88;;;;;;;;;;4955152;28;19965;-79
2023/10/09 11:18:42;;;;;;;10.35;5.80;;;;;;;;;;4926179;28;19917;-79
2023/10/09 11:28:56;;;;;;;8.07;5.72;;;;;;;;;;4971265;28;20078;-79
2023/10/09 11:31:22;;;;;;;10.45;6.65;;;;;;;;;;4960663;28;20530;-79
2023/10/09 11:33:51;;;;;;;12.93;6.80;;;;;;;;;;4962035;28;20414;-79
2023/10/09 11:36:32;;;;;;;8.43;6.05;;;;;;;;;;4955081;28;20031;-79
2023/10/09 11:39:14;;;;;;;8.82;5.68;;;;;;;;;;4946664;28;20041;-79
2023/10/09 11:41:44;;;;;;;8.90;6.30;;;;;;;;;;4953889;28;20062;-79
2023/10/09 11:44:18;;;;;;;9.90;6.40;;;;;;;;;;4954410;28;20157;-79
2023/10/09 11:46:58;;;;;;;8.88;5.28;;;;;;;;;;4956060;28;20049;-79
2023/10/09 11:49:34;;;;;;;7.47;4.70;;;;;;;;;;4939194;28;20094;-79
2023/10/09 11:54:37;;;;;;;9.32;4.90;;;;;;;;;;4962905;28;20053;-79
2023/10/09 11:57:03;;;;;;;6.47;4.53;;;;;;;;;;4951229;28;20111;-79
2023/10/09 11:59:37;;;;;;;7.50;4.30;;;;;;;;;;4943628;28;20043;-79
2023/10/09 12:02:04;;;;;;;8.55;4.53;;;;;;;;;;4955721;28;20042;-79
2023/10/09 12:04:30;;;;;;;8.45;4.35;;;;;;;;;;4961865;28;20039;-79
2023/10/09 12:07:08;;;;;;;9.70;5.35;;;;;;;;;;4955423;28;20046;-79
2023/10/09 12:09:34;;;;;;;7.97;4.90;;;;;;;;;;4942616;28;20051;-79
2023/10/09 12:12:04;;;;;;;7.00;4.88;;;;;;;;;;4955058;28;20097;-79
2023/10/09 12:14:33;;;;;;;7.65;5.10;;;;;;;;;;4963486;28;20206;-79
2023/10/09 12:17:07;;;;;;;9.13;5.32;;;;;;;;;;4938387;28;20086;-79
2023/10/09 12:19:34;;;;;;;7.95;5.30;;;;;;;;;;4946542;28;20039;-79
2023/10/09 12:22:01;;;;;;;8.00;5.25;;;;;;;;;;4946315;28;20034;-78
2023/10/09 12:24:29;;;;;;;7.38;5.00;;;;;;;;;;4971170;28;20043;-79
2023/10/09 12:26:57;;;;;;;7.63;5.47;;;;;;;;;;4955070;28;20053;-78
2023/10/09 12:29:23;;;;;;;8.85;4.90;;;;;;;;;;4956786;28;20405;-78
2023/10/09 12:31:57;;;;;;;7.78;5.30;;;;;;;;;;4952329;28;20555;-78
2023/10/09 12:34:26;;;;;;;6.75;5.10;;;;;;;;;;4970432;28;20027;-79
2023/10/09 12:36:53;;;;;;;7.80;5.20;;;;;;;;;;4945286;28;20449;-78
2023/10/09 12:39:19;;;;;;;9.05;5.50;;;;;;;;;;4955278;28;20031;-79
2023/10/09 12:41:45;;;;;;;8.07;5.20;;;;;;;;;;4944798;28;20808;-78
2023/10/09 12:44:22;;;;;;;7.70;5.60;;;;;;;;;;4955388;28;20047;-78
2023/10/09 12:46:54;;;;;;;10.30;5.47;;;;;;;;;;4944462;28;20034;-77
2023/10/09 12:49:25;;;;;;;8.57;5.75;;;;;;;;;;4954932;28;20152;-79
2023/10/09 12:51:54;;;;;;;9.18;5.72;;;;;;;;;;4945542;28;20126;-79
2023/10/09 12:54:20;;;;;;;11.85;6.10;;;;;;;;;;4955389;28;20094;-79
2023/10/09 12:56:48;;;;;;;8.60;5.97;;;;;;;;;;4954761;28;20058;-79
2023/10/09 12:59:14;;;;;;;8.70;5.97;;;;;;;;;;4964819;28;20051;-79
2023/10/09 13:01:43;;;;;;;8.18;5.80;;;;;;;;;;4961183;28;20459;-79
2023/10/09 13:04:15;;;;;;;9.18;6.30;;;;;;;;;;4941917;28;20045;-79
2023/10/09 13:06:44;;;;;;;7.85;5.93;;;;;;;;;;4980987;28;20036;-79
2023/10/09 13:09:24;;;;;;;9.85;6.90;;;;;;;;;;4949624;28;20386;-78
2023/10/09 13:11:50;;;;;;;8.70;6.78;;;;;;;;;;4957555;28;20074;-79
2023/10/09 13:14:22;;;;;;;9.50;7.35;;;;;;;;;;4959470;28;20138;-79
2023/10/09 13:16:50;;;;;;;8.20;6.80;;;;;;;;;;4941502;28;20039;-79
2023/10/09 13:19:17;;;;;;;11.05;7.78;;;;;;;;;;4978099;28;20035;-77
2023/10/09 13:21:43;;;;;;;11.20;7.38;;;;;;;;;;4957937;28;20167;-78
2023/10/09 13:24:24;;;;;;;9.63;7.82;;;;;;;;;;4939887;28;20062;-78
2023/10/09 13:26:52;;;;;;;10.57;7.75;;;;;;;;;;4944167;28;20031;-78
2023/10/09 13:29:22;;;;;;;;;;;;;;;;;;4959516;28;20598;-79
2023/10/09 13:31:49;;;;;;;12.20;7.82;;;;;;;;;;4940455;28;20374;-79
2023/10/09 13:34:15;;;;;;;9.25;7.90;;;;;;;;;;4956835;28;20979;-79
2023/10/09 13:36:58;;;;;;;9.80;7.72;;;;;;;;;;4956916;28;20812;-79
2023/10/09 13:39:24;;;;;;;9.38;7.13;;;;;;;;;;4948400;28;20043;-80
2023/10/09 13:41:57;;;;;;;11.35;7.20;;;;;;;;;;4941150;28;20049;-79
2023/10/09 13:44:29;;;;;;;10.90;7.90;;;;;;;;;;4962722;28;20098;-78
2023/10/09 13:47:19;;;;;;;9.68;7.25;;;;;;;;;;4963611;28;20113;-79
2023/10/09 13:49:52;;;;;;;9.05;6.43;;;;;;;;;;4956252;28;20662;-79
2023/10/09 13:52:18;;;;;;;11.15;6.90;;;;;;;;;;4956297;28;20043;-79
2023/10/09 13:54:48;;;;;;;10.30;6.57;;;;;;;;;;4939298;28;20046;-79
2023/10/09 13:57:14;;;;;;;10.95;7.47;;;;;;;;;;4956403;28;20036;-79
2023/10/09 13:59:48;;;;;;;13.30;7.63;;;;;;;;;;4973954;28;20058;-79
2023/10/09 14:02:17;;;;;;;11.10;7.85;;;;;;;;;;4942489;28;20046;-79
2023/10/09 14:04:43;;;;;;;10.52;7.95;;;;;;;;;;4964526;28;20047;-77
2023/10/09 14:07:09;;;;;;;12.50;9.25;;;;;;;;;;4962189;28;20097;-78
2023/10/09 14:09:38;;;;;;;12.20;8.93;;;;;;;;;;4941258;28;20047;-78
2023/10/09 14:12:13;;;;;;;10.23;8.55;;;;;;;;;;4940916;28;20095;-79
2023/10/09 14:14:49;;;;;;;12.52;8.52;;;;;;;;;;4963653;28;20809;-78
2023/10/09 14:17:23;;;;;;;10.90;8.15;;;;;;;;;;4976717;28;20066;-78
2023/10/09 14:19:51;;;;;;;13.60;8.50;;;;;;;;;;4941538;28;20502;-79
2023/10/09 14:22:21;;;;;;;13.05;8.30;;;;;;;;;;4939619;28;20538;-78
2023/10/09 14:24:47;;;;;;;12.18;8.38;;;;;;;;;;4954696;28;20047;-78
2023/10/09 14:27:19;;;;;;;10.70;8.07;;;;;;;;;;4962587;28;20189;-78
2023/10/09 14:29:45;;;;;;;12.20;8.05;;;;;;;;;;4954800;28;20288;-78
2023/10/09 14:32:14;;;;;;;10.82;7.65;;;;;;;;;;4940834;28;20092;-79
2023/10/09 14:34:47;;;;;;;10.90;7.38;;;;;;;;;;4942298;28;20046;-79
2023/10/09 14:37:14;;;;;;;10.73;8.27;;;;;;;;;;4977372;28;20035;-79
2023/10/09 14:39:41;;;;;;;10.90;7.78;;;;;;;;;;4935764;28;20043;-80
2023/10/09 14:42:10;;;;;;;13.60;7.45;;;;;;;;;;4956577;28;20903;-78
2023/10/09 14:44:38;;;;;;;11.43;8.15;;;;;;;;;;4954910;28;20049;-79
2023/10/09 14:47:05;;;;;;;10.55;8.20;;;;;;;;;;4956180;28;20966;-79
2023/10/09 14:49:53;;;;;;;10.98;8.07;;;;;;;;;;4973335;28;20045;-80
2023/10/09 14:52:18;;;;;;;10.45;7.60;;;;;;;;;;4960264;28;20030;-77
2023/10/09 14:54:47;;;;;;;12.52;8.75;;;;;;;;;;4971785;28;20050;-79
2023/10/09 14:57:13;;;;;;;12.35;8.18;;;;;;;;;;4961403;28;20035;-77
2023/10/09 14:59:40;;;;;;;12.55;8.18;;;;;;;;;;4946362;28;20541;-76
2023/10/09 15:02:07;;;;;;;9.82;7.38;;;;;;;;;;4953918;28;20042;-76
2023/10/09 15:04:35;;;;;;;9.68;7.82;;;;;;;;;;4956569;28;20521;-77
2023/10/09 15:07:01;;;;;;;9.43;7.10;;;;;;;;;;4949401;28;20042;-77
2023/10/09 15:09:29;;;;;;;9.50;7.53;;;;;;;;;;4955803;28;20081;-76
2023/10/09 15:12:01;;;;;;;10.07;8.05;;;;;;;;;;4937362;28;20739;-79
2023/10/09 15:14:26;;;;;;;10.60;7.78;;;;;;;;;;4924526;28;20542;-79
2023/10/09 15:16:52;;;;;;;12.43;9.25;;;;;;;;;;4954282;28;20050;-79
2023/10/09 15:19:17;;;;;;;12.15;8.55;;;;;;;;;;4955937;28;20937;-79
2023/10/09 15:21:45;;;;;;;11.57;8.30;;;;;;;;;;4961502;28;20474;-79
2023/10/09 15:24:15;;;;;;;12.80;8.23;;;;;;;;;;4940234;28;20039;-79
2023/10/09 15:26:42;;;;;;;11.55;8.60;;;;;;;;;;4945160;28;20043;-79
2023/10/09 15:29:09;;;;;;;11.52;8.25;;;;;;;;;;4962185;28;20118;-79
2023/10/09 15:31:35;;;;;;;11.48;7.85;;;;;;;;;;4937328;28;20046;-79
2023/10/09 15:34:01;;;;;;;10.45;8.20;;;;;;;;;;4962287;28;20038;-78
2023/10/09 15:36:32;;;;;;;12.82;8.35;;;;;;;;;;4969724;28;20498;-77
2023/10/09 15:39:01;;;;;;;15.77;9.25;;;;;;;;;;4956549;28;20435;-77
2023/10/09 15:41:29;;;;;;;12.73;8.65;;;;;;;;;;4945860;28;20738;-77
2023/10/09 15:43:58;;;;;;;10.50;8.35;;;;;;;;;;4977400;28;21485;-77
2023/10/09 15:46:25;;;;;;;14.68;8.70;;;;;;;;;;4954672;28;20129;-77
2023/10/09 15:48:53;;;;;;;11.40;8.80;;;;;;;;;;4959826;28;20046;-78
2023/10/09 15:51:18;;;;;;;;;;;;;;;;;;4955397;28;20034;-78
2023/10/09 15:53:44;;;;;;;11.43;7.97;;;;;;;;;;4970780;28;20385;-78
2023/10/09 15:56:13;;;;;;;9.82;7.93;;;;;;;;;;4936025;28;20046;-78
2023/10/09 15:58:45;;;;;;;12.18;8.65;;;;;;;;;;4955549;28;20053;-79
2023/10/09 16:01:15;;;;;;;10.35;7.88;;;;;;;;;;4952930;28;20058;-79
2023/10/09 16:03:44;;;;;;;11.98;8.48;;;;;;;;;;4961732;28;20027;-79
2023/10/09 16:06:13;;;;;;;11.40;8.00;;;;;;;;;;4955536;28;20360;-78
2023/10/09 16:08:40;;;;;;;10.23;8.07;;;;;;;;;;4940109;28;20046;-78
2023/10/09 16:11:05;;;;;;;12.30;7.82;;;;;;;;;;4954619;28;20051;-77
2023/10/09 16:13:32;;;;;;;13.48;8.07;;;;;;;;;;4953321;28;20039;-77
2023/10/09 16:15:59;;;;;;;10.23;7.87;;;;;;;;;;4961003;28;20034;-77
2023/10/09 16:18:27;;;;;;;11.40;7.97;;;;;;;;;;4946206;28;20294;-77
2023/10/09 16:20:54;;;;;;;;;;;;;;;;;;4956363;28;20050;-77
2023/10/09 16:23:23;;;;;;;12.05;8.68;;;;;;;;;;4970619;28;20401;-78
2023/10/09 16:25:48;;;;;;;11.13;8.63;;;;;;;;;;4961821;28;20034;-79
2023/10/09 16:28:15;;;;;;;11.63;9.18;;;;;;;;;;4954681;28;20039;-78
2023/10/09 16:30:42;;;;;;;13.43;9.10;;;;;;;;;;4977610;28;20039;-78
2023/10/09 16:33:08;;;;;;;12.15;9.57;;;;;;;;;;4957546;28;20035;-78
2023/10/09 16:35:37;;;;;;;13.82;10.75;;;;;;;;;;4960396;28;20403;-77
2023/10/09 16:38:05;;;;;;;17.02;12.50;;;;;;;;;;4959000;28;20482;-77
2023/10/09 16:40:31;;;;;;;14.60;11.75;;;;;;;;;;4974974;28;20398;-78
2023/10/09 16:42:57;;;;;;;19.15;12.98;;;;;;;;;;4976159;28;20541;-78
2023/10/09 16:45:26;;;;;;;16.63;12.30;;;;;;;;;;4959836;28;20038;-78
2023/10/09 16:47:54;;;;;;;17.58;12.65;;;;;;;;;;4944115;28;20081;-78
2023/10/09 16:50:25;;;;;;;19.33;13.85;;;;;;;;;;4959487;28;20122;-77
2023/10/09 16:52:51;;;;;;;18.02;13.20;;;;;;;;;;4949942;28;20049;-78
2023/10/09 16:55:19;;;;;;;18.08;12.52;;;;;;;;;;4949380;28;20034;-79
2023/10/09 16:57:46;;;;;;;16.90;13.00;;;;;;;;;;4957880;28;20394;-77
2023/10/09 17:00:28;;;;;;;23.95;15.55;;;;;;;;;;4948494;28;20039;-77
2023/10/09 17:02:57;;;;;;;19.00;14.20;;;;;;;;;;4957962;28;20039;-78
2023/10/09 17:05:32;;;;;;;21.40;15.15;;;;;;;;;;4943798;28;20039;-78
2023/10/09 17:07:59;;;;;;;20.13;15.50;;;;;;;;;;4973099;28;20057;-76
2023/10/09 17:10:28;;;;;;;21.25;15.93;;;;;;;;;;4975784;28;20439;-77
2023/10/09 17:12:57;;;;;;;21.20;14.93;;;;;;;;;;4959350;28;20511;-77
2023/10/09 17:15:29;;;;;;;19.42;15.10;;;;;;;;;;4965034;28;20418;-78
2023/10/09 17:17:54;;;;;;;21.15;15.88;;;;;;;;;;4951867;28;20042;-78
2023/10/09 17:20:26;;;;;;;21.27;14.88;;;;;;;;;;4906998;28;20066;-78
2023/10/09 17:22:52;;;;;;;21.45;15.75;;;;;;;;;;4941547;28;20086;-78
2023/10/09 17:25:18;;;;;;;21.65;15.90;;;;;;;;;;4958920;28;20038;-78
2023/10/09 17:27:44;;;;;;;21.30;16.23;;;;;;;;;;4956639;28;20054;-77
2023/10/09 17:30:10;;;;;;;21.65;16.05;;;;;;;;;;4941004;28;20059;-77
2023/10/09 17:32:37;;;;;;;19.35;15.13;;;;;;;;;;4963341;28;20446;-77